Main page
Satellite images Climate Cyclones Lightning AirportsFAQ Languages Contact Newsletter About
Weather : Europe Africa North America South America Asia Australia-Oceania Others

surat-thani-th, Surat Thani, Surat Thani International Airport

48551

latitude: , longitude: Thailand, elevation: 09-07N m


METAR: VTSB 240500Z VRB04KT 9999 FEW018CB SCT020 33/26 Q1009